createdAt,value
2019-02-06T00:01:29.431Z,99.93
2019-02-06T00:03:59.738Z,92.00
2019-02-06T00:06:29.847Z,93.90
2019-02-06T00:09:00.157Z,111.23
2019-02-06T00:11:30.069Z,90.90
2019-02-06T00:14:00.394Z,97.63
2019-02-06T00:16:30.902Z,85.17
2019-02-06T00:19:01.148Z,128.43
2019-02-06T00:21:31.198Z,86.30
2019-02-06T00:24:01.601Z,84.97
2019-02-06T00:26:31.514Z,82.73
2019-02-06T00:29:01.429Z,88.53
2019-02-06T00:31:31.346Z,133.40
2019-02-06T00:34:01.255Z,82.77
2019-02-06T00:36:31.661Z,105.17
2019-02-06T00:39:01.671Z,83.57
2019-02-06T00:41:31.588Z,85.43
2019-02-06T00:44:01.599Z,138.33
2019-02-06T00:46:32.296Z,81.13
2019-02-06T00:49:02.507Z,82.83
2019-02-06T00:51:32.714Z,88.10
2019-02-06T00:54:02.728Z,96.63
2019-02-06T00:56:32.637Z,85.33
2019-02-06T00:59:02.948Z,114.63
2019-02-06T01:01:33.352Z,104.30
2019-02-06T01:04:03.461Z,91.23
2019-02-06T01:06:34.356Z,112.17
2019-02-06T01:09:06.236Z,105.70
2019-02-06T01:11:36.249Z,103.63
2019-02-06T01:14:06.749Z,105.77
2019-02-06T01:16:36.664Z,92.27
2019-02-06T01:19:07.173Z,175.83
2019-02-06T01:21:37.671Z,129.03
2019-02-06T01:24:07.881Z,120.03
2019-02-06T01:26:37.797Z,109.87
2019-02-06T01:29:07.710Z,99.17
2019-02-06T01:31:37.847Z,106.17
2019-02-06T01:34:08.029Z,86.43
2019-02-06T01:36:37.941Z,96.90
2019-02-06T01:39:10.999Z,110.67
2019-02-06T01:41:41.008Z,84.83
2019-02-06T01:44:11.025Z,93.53
2019-02-06T01:46:41.335Z,81.53
2019-02-06T01:49:11.540Z,101.67
2019-02-06T01:51:41.456Z,86.80
2019-02-06T01:54:11.365Z,75.43
2019-02-06T01:56:41.472Z,93.97
2019-02-06T01:59:11.485Z,100.23
2019-02-06T02:01:41.891Z,96.47
2019-02-06T02:04:11.810Z,91.33
2019-02-06T02:06:41.721Z,78.03
2019-02-06T02:09:13.305Z,94.03
2019-02-06T02:11:43.685Z,79.90
2019-02-06T02:14:14.014Z,90.00
2019-02-06T02:16:44.519Z,81.70
2019-02-06T02:19:14.823Z,90.10
2019-02-06T02:21:44.736Z,85.13
2019-02-06T02:24:15.044Z,73.27
2019-02-06T02:26:45.057Z,152.43
2019-02-06T02:29:14.968Z,81.60
2019-02-06T02:31:45.514Z,96.73
2019-02-06T02:34:15.483Z,86.60
2019-02-06T02:36:45.593Z,80.70
2019-02-06T02:39:15.540Z,84.43
2019-02-06T02:41:45.716Z,81.33
2019-02-06T02:44:15.727Z,59.67
2019-02-06T02:46:46.237Z,53.40
2019-02-06T02:49:16.146Z,69.37
2019-02-06T02:51:46.058Z,67.57
2019-02-06T02:54:15.974Z,61.47
2019-02-06T02:56:46.380Z,56.83
2019-02-06T02:59:16.880Z,81.57
2019-02-06T03:01:50.822Z,55.87
2019-02-06T03:04:22.605Z,44.80
2019-02-06T03:06:53.009Z,38.10
2019-02-06T03:09:22.922Z,27.37
2019-02-06T03:11:53.428Z,28.00
2019-02-06T03:14:23.341Z,25.90
2019-02-06T03:16:53.255Z,30.27
2019-02-06T03:19:23.269Z,27.67
2019-02-06T03:21:53.178Z,27.73
2019-02-06T03:24:23.288Z,25.77
2019-02-06T03:26:53.596Z,27.40
2019-02-06T03:29:23.511Z,27.17
2019-02-06T03:31:53.423Z,29.63
2019-02-06T03:34:23.539Z,31.67
2019-02-06T03:36:53.839Z,26.73
2019-02-06T03:39:23.950Z,19.40
2019-02-06T03:41:54.452Z,21.20
2019-02-06T03:44:24.465Z,21.40
2019-02-06T03:46:54.776Z,21.73
2019-02-06T03:49:24.686Z,21.93
2019-02-06T03:51:54.851Z,24.83
2019-02-06T03:54:24.807Z,21.77
2019-02-06T03:56:54.727Z,21.43
2019-02-06T03:59:24.732Z,22.33
2019-02-06T04:01:54.644Z,20.77
2019-02-06T04:04:24.561Z,16.03
2019-02-06T04:07:00.746Z,23.93
2019-02-06T04:09:26.187Z,19.10
2019-02-06T04:11:56.169Z,21.73
2019-02-06T04:14:26.179Z,21.07
2019-02-06T04:16:56.093Z,19.00
2019-02-06T04:19:26.304Z,20.83
2019-02-06T04:21:56.413Z,17.87
2019-02-06T04:24:27.995Z,16.87
2019-02-06T04:26:57.907Z,20.73
2019-02-06T04:29:27.822Z,17.07
2019-02-06T04:31:57.736Z,17.97
2019-02-06T04:34:27.846Z,17.53
2019-02-06T04:37:06.244Z,16.40
2019-02-06T04:39:29.443Z,22.03
2019-02-06T04:41:59.356Z,19.33
2019-02-06T04:44:29.269Z,16.90
2019-02-06T04:46:59.182Z,24.93
2019-02-06T04:49:29.096Z,20.27
2019-02-06T04:51:59.011Z,26.57
2019-02-06T04:54:28.929Z,32.30
2019-02-06T04:56:59.285Z,29.90
2019-02-06T04:59:29.350Z,23.93
2019-02-06T05:01:59.255Z,24.07
2019-02-06T05:04:29.167Z,18.53
2019-02-06T05:06:59.672Z,21.00
2019-02-06T05:09:29.583Z,21.47
2019-02-06T05:11:59.496Z,23.03
2019-02-06T05:14:29.408Z,21.23
2019-02-06T05:16:59.715Z,22.23
2019-02-06T05:19:29.829Z,22.37
2019-02-06T05:22:00.036Z,27.40
2019-02-06T05:24:29.951Z,30.07
2019-02-06T05:26:59.864Z,25.33
2019-02-06T05:29:30.173Z,23.30
2019-02-06T05:32:00.377Z,26.13
2019-02-06T05:34:30.586Z,24.27
2019-02-06T05:37:00.854Z,21.60
2019-02-06T05:39:30.807Z,25.57
2019-02-06T05:42:00.819Z,29.03
2019-02-06T05:44:31.155Z,24.57
2019-02-06T05:47:01.157Z,22.47
2019-02-06T05:49:31.245Z,38.43
2019-02-06T05:52:01.458Z,30.33
2019-02-06T05:54:31.368Z,25.60
2019-02-06T05:57:01.282Z,34.27
2019-02-06T05:59:31.196Z,28.10
2019-02-06T06:02:01.501Z,35.73
2019-02-06T06:04:31.416Z,30.30
2019-02-06T06:07:01.920Z,30.67
2019-02-06T06:09:32.032Z,26.83
2019-02-06T06:12:02.175Z,25.73
2019-02-06T06:14:32.051Z,34.73
2019-02-06T06:17:01.975Z,32.03
2019-02-06T06:19:31.878Z,29.17
2019-02-06T06:22:02.285Z,33.03
2019-02-06T06:24:32.497Z,37.70
2019-02-06T06:27:02.415Z,42.43
2019-02-06T06:29:32.319Z,78.83
2019-02-06T06:32:02.234Z,96.07
2019-02-06T06:34:32.345Z,62.03
2019-02-06T06:37:02.945Z,61.57
2019-02-06T06:39:32.861Z,51.33
2019-02-06T06:42:03.196Z,54.37
2019-02-06T06:44:33.181Z,59.33
2019-02-06T06:47:03.384Z,82.20
2019-02-06T06:49:33.298Z,65.20
2019-02-06T06:52:03.981Z,54.73
2019-02-06T06:54:34.110Z,52.53
2019-02-06T06:57:04.021Z,54.20
2019-02-06T06:59:34.427Z,54.90
2019-02-06T07:02:04.733Z,48.80
2019-02-06T07:04:35.634Z,63.63
2019-02-06T07:07:06.331Z,56.60
2019-02-06T07:09:36.244Z,58.73
2019-02-06T07:12:06.449Z,68.63
2019-02-06T07:14:36.436Z,98.93
2019-02-06T07:17:06.672Z,114.80
2019-02-06T07:19:36.894Z,113.40
2019-02-06T07:22:06.797Z,142.23
2019-02-06T07:24:36.904Z,88.90
2019-02-06T07:27:07.212Z,80.97
2019-02-06T07:29:37.131Z,84.53
2019-02-06T07:32:07.138Z,73.73
2019-02-06T07:34:37.051Z,85.80
2019-02-06T07:37:07.357Z,88.97
2019-02-06T07:39:37.863Z,142.47
2019-02-06T07:42:07.775Z,113.07
2019-02-06T07:44:37.687Z,93.20
2019-02-06T07:47:07.896Z,93.23
2019-02-06T07:49:37.909Z,79.47
2019-02-06T07:52:07.821Z,83.60
2019-02-06T07:54:38.028Z,84.03
2019-02-06T07:57:08.040Z,81.00
2019-02-06T07:59:37.957Z,70.43
2019-02-06T08:02:08.261Z,106.73
2019-02-06T08:04:38.173Z,84.63
2019-02-06T08:07:08.186Z,89.87
2019-02-06T08:09:38.099Z,81.83
2019-02-06T08:12:08.212Z,69.47
2019-02-06T08:14:38.235Z,72.37
2019-02-06T08:17:09.019Z,74.50
2019-02-06T08:19:39.227Z,61.77
2019-02-06T08:22:09.735Z,69.53
2019-02-06T08:24:39.843Z,62.60
2019-02-06T08:27:09.756Z,67.37
2019-02-06T08:29:39.670Z,53.93
2019-02-06T08:32:09.876Z,46.43
2019-02-06T08:34:39.897Z,51.87
2019-02-06T08:37:10.162Z,57.40
2019-02-06T08:39:40.111Z,55.27
2019-02-06T08:42:10.612Z,59.03
2019-02-06T08:44:40.624Z,69.13
2019-02-06T08:47:10.541Z,86.93
2019-02-06T08:49:40.943Z,79.93
2019-02-06T08:52:10.857Z,61.80
2019-02-06T08:54:41.067Z,63.17
2019-02-06T08:57:11.490Z,59.67
2019-02-06T08:59:42.274Z,55.23
2019-02-06T09:02:12.182Z,57.93
2019-02-06T09:04:42.291Z,64.17
2019-02-06T09:07:12.206Z,60.43
2019-02-06T09:09:43.569Z,75.57
2019-02-06T09:12:13.607Z,68.00
2019-02-06T09:14:43.816Z,71.10
2019-02-06T09:17:14.221Z,71.03
2019-02-06T09:19:44.132Z,62.43
2019-02-06T09:22:13.942Z,67.10
2019-02-06T09:24:45.043Z,56.13
2019-02-06T09:27:15.250Z,63.00
2019-02-06T09:29:46.116Z,57.53
2019-02-06T09:32:16.059Z,64.93
2019-02-06T09:34:46.170Z,59.97
2019-02-06T09:37:16.082Z,71.20
2019-02-06T09:39:46.001Z,70.37
2019-02-06T09:42:16.204Z,62.97
2019-02-06T09:44:46.412Z,74.10
2019-02-06T09:47:16.326Z,75.23
2019-02-06T09:49:46.241Z,54.27
2019-02-06T09:52:16.154Z,54.83
2019-02-06T09:54:46.220Z,53.73
2019-02-06T09:57:16.962Z,63.67
2019-02-06T09:59:47.174Z,51.20
2019-02-06T10:02:17.085Z,61.53
2019-02-06T10:04:46.998Z,44.23
2019-02-06T10:07:17.011Z,45.97
2019-02-06T10:09:47.023Z,50.07
2019-02-06T10:12:17.240Z,49.63
2019-02-06T10:14:47.339Z,52.07
2019-02-06T10:17:17.846Z,52.23
2019-02-06T10:19:47.758Z,43.50
2019-02-06T10:22:17.772Z,48.43
2019-02-06T10:24:50.439Z,47.77
2019-02-06T10:27:20.349Z,48.20
2019-02-06T10:29:50.262Z,39.63
2019-02-06T10:32:20.277Z,35.10
2019-02-06T10:34:50.187Z,29.43
2019-02-06T10:37:20.100Z,31.37
2019-02-06T10:39:50.016Z,25.00
2019-02-06T10:42:19.931Z,22.13
2019-02-06T10:44:49.840Z,20.10
2019-02-06T10:47:19.753Z,20.57
2019-02-06T10:49:49.673Z,20.93
2019-02-06T10:52:19.683Z,21.90
2019-02-06T10:54:50.479Z,22.57
2019-02-06T10:57:20.687Z,18.40
2019-02-06T10:59:50.599Z,13.13
2019-02-06T11:02:20.517Z,10.07
2019-02-06T11:04:50.623Z,10.20
2019-02-06T11:07:21.131Z,14.53
2019-02-06T11:09:51.730Z,12.60
2019-02-06T11:12:24.566Z,12.77
2019-02-06T11:14:53.719Z,12.30
2019-02-06T11:17:24.122Z,10.70
2019-02-06T11:19:54.137Z,12.20
2019-02-06T11:22:24.046Z,11.07
2019-02-06T11:24:54.259Z,9.20
2019-02-06T11:27:24.563Z,10.00
2019-02-06T11:29:54.576Z,10.20
2019-02-06T11:32:24.494Z,10.23
2019-02-06T11:34:54.402Z,10.73
2019-02-06T11:37:25.002Z,7.20
2019-02-06T11:39:58.110Z,7.60
2019-02-06T11:42:26.994Z,8.50
2019-02-06T11:44:56.903Z,7.37
2019-02-06T11:47:26.816Z,7.23
2019-02-06T11:49:58.598Z,7.30
2019-02-06T11:52:28.710Z,6.87
2019-02-06T11:54:58.921Z,7.77
2019-02-06T11:57:28.833Z,7.10
2019-02-06T11:59:58.750Z,3.93
2019-02-06T12:02:36.952Z,4.67
2019-02-06T12:05:00.569Z,3.57
2019-02-06T12:07:30.744Z,3.50
2019-02-06T12:10:09.490Z,3.83
2019-02-06T12:12:32.253Z,6.07
2019-02-06T12:15:02.355Z,4.43
2019-02-06T12:17:32.151Z,5.00
2019-02-06T12:20:02.596Z,3.20
2019-02-06T12:22:32.559Z,3.07
2019-02-06T12:25:02.593Z,3.40
2019-02-06T12:27:32.806Z,2.60
2019-02-06T12:30:02.819Z,2.63
2019-02-06T12:32:32.928Z,2.43
2019-02-06T12:35:03.926Z,5.67
2019-02-06T12:37:33.835Z,2.60
2019-02-06T12:40:05.129Z,2.53
2019-02-06T12:42:35.040Z,2.57
2019-02-06T12:45:07.623Z,2.70
2019-02-06T12:47:37.521Z,2.83
2019-02-06T12:50:11.781Z,3.20
2019-02-06T12:52:41.770Z,3.13
2019-02-06T12:55:21.716Z,2.80
2019-02-06T12:57:51.737Z,2.57
2019-02-06T13:00:28.420Z,2.80
2019-02-06T13:03:00.001Z,2.40
2019-02-06T13:05:31.424Z,2.50
2019-02-06T13:08:01.599Z,2.60
2019-02-06T13:10:34.214Z,2.97
2019-02-06T13:13:03.590Z,2.50
2019-02-06T13:15:34.683Z,3.10
2019-02-06T13:18:05.580Z,2.70
2019-02-06T13:20:37.365Z,3.00
2019-02-06T13:23:07.963Z,4.13
2019-02-06T13:25:37.874Z,3.03
2019-02-06T13:28:08.379Z,3.00
2019-02-06T13:30:39.275Z,3.00
2019-02-06T13:33:11.672Z,3.30
2019-02-06T13:35:41.953Z,2.83
2019-02-06T13:38:11.867Z,3.50
2019-02-06T13:40:45.762Z,4.07
2019-02-06T13:43:14.160Z,4.47
2019-02-06T13:45:48.010Z,4.60
2019-02-06T13:48:17.910Z,9.67
2019-02-06T13:50:47.925Z,17.33
2019-02-06T13:53:17.739Z,12.53
2019-02-06T13:55:48.656Z,13.07
2019-02-06T13:58:20.458Z,14.67
2019-02-06T14:00:52.455Z,7.47
2019-02-06T14:03:22.502Z,21.67
2019-02-06T14:05:52.682Z,2.93
2019-02-06T14:08:22.910Z,2.30
2019-02-06T14:11:00.139Z,2.20
2019-02-06T14:13:25.405Z,2.80
2019-02-06T14:15:56.001Z,6.10
2019-02-06T14:18:26.013Z,8.23
2019-02-06T14:20:56.222Z,7.47
2019-02-06T14:23:36.419Z,6.53
2019-02-06T14:26:14.376Z,3.37
2019-02-06T14:29:06.819Z,2.57
2019-02-06T14:31:52.777Z,3.10
2019-02-06T14:34:46.495Z,3.20
2019-02-06T14:37:29.290Z,8.80
2019-02-06T14:40:41.667Z,13.17
2019-02-06T14:43:18.953Z,8.47
2019-02-06T14:46:05.196Z,4.93
2019-02-06T14:48:58.396Z,3.10
2019-02-06T14:52:18.346Z,2.93
2019-02-06T14:55:12.271Z,3.20
2019-02-06T14:57:55.436Z,2.53
2019-02-06T15:01:07.616Z,4.57
2019-02-06T15:04:07.018Z,3.80
2019-02-06T15:07:02.000Z,3.20
2019-02-06T15:10:17.036Z,3.63
2019-02-06T15:13:06.040Z,4.23
2019-02-06T15:15:49.203Z,5.30
2019-02-06T15:18:38.671Z,3.67
2019-02-06T15:21:21.937Z,3.23
2019-02-06T15:24:26.803Z,3.33
2019-02-06T15:27:20.673Z,3.57
2019-02-06T15:29:55.338Z,6.00
2019-02-06T15:32:50.781Z,4.13
2019-02-06T15:35:33.571Z,4.63
2019-02-06T15:38:19.410Z,3.50
2019-02-06T15:41:08.490Z,3.90
2019-02-06T15:43:51.580Z,3.33
2019-02-06T15:46:52.848Z,3.90
2019-02-06T15:49:49.600Z,3.30
2019-02-06T15:53:00.702Z,3.03
2019-02-06T15:55:46.668Z,3.37
2019-02-06T15:58:36.119Z,3.10
2019-02-06T16:01:30.020Z,18.10
2019-02-06T16:04:38.757Z,8.60
2019-02-06T16:07:27.351Z,5.80
2019-02-06T16:10:10.533Z,7.97
2019-02-06T16:12:47.436Z,3.30
2019-02-06T16:15:49.193Z,3.53
2019-02-06T16:18:41.909Z,3.10
2019-02-06T16:21:53.456Z,3.87
2019-02-06T16:24:28.530Z,4.03
2019-02-06T16:27:29.414Z,3.57
2019-02-06T16:30:24.588Z,4.57
2019-02-06T16:33:38.151Z,3.30
2019-02-06T16:36:31.949Z,4.93
2019-02-06T16:39:30.760Z,4.50
2019-02-06T16:42:29.186Z,3.47
2019-02-06T16:45:41.073Z,3.37
2019-02-06T16:48:34.195Z,5.03
2019-02-06T16:51:17.471Z,5.03
2019-02-06T16:54:17.465Z,6.13
2019-02-06T16:57:06.744Z,4.57
2019-02-06T17:00:12.634Z,5.77
2019-02-06T17:03:01.832Z,7.00
2019-02-06T17:05:36.546Z,8.57
2019-02-06T17:08:25.730Z,7.80
2019-02-06T17:11:11.270Z,8.77
2019-02-06T17:13:54.361Z,37.43
2019-02-06T17:16:52.192Z,28.70
2019-02-06T17:19:32.185Z,17.73
2019-02-06T17:22:27.555Z,14.03
2019-02-06T17:25:33.301Z,15.73
2019-02-06T17:28:13.636Z,14.63
2019-02-06T17:31:21.395Z,13.10
2019-02-06T17:34:24.634Z,11.30
2019-02-06T17:37:07.819Z,13.30
2019-02-06T17:39:42.026Z,13.27
2019-02-06T17:42:33.102Z,12.77
2019-02-06T17:45:10.097Z,13.93
2019-02-06T17:47:53.488Z,13.83
2019-02-06T17:50:36.467Z,15.30
2019-02-06T17:53:19.556Z,13.10
2019-02-06T17:55:49.954Z,12.70
2019-02-06T17:58:20.556Z,12.43
2019-02-06T18:01:02.463Z,14.13
2019-02-06T18:03:37.388Z,14.33
2019-02-06T18:06:08.019Z,12.17
2019-02-06T18:08:39.982Z,12.40
2019-02-06T18:11:10.671Z,13.10
2019-02-06T18:13:40.877Z,13.93
2019-02-06T18:16:20.852Z,13.40
2019-02-06T18:18:42.669Z,15.07
2019-02-06T18:21:12.779Z,16.10
2019-02-06T18:23:42.693Z,18.67
2019-02-06T18:26:13.201Z,17.67
2019-02-06T18:28:43.106Z,21.40
2019-02-06T18:31:14.122Z,22.03
2019-02-06T18:33:44.119Z,22.60
2019-02-06T18:36:14.325Z,31.87
2019-02-06T18:38:46.700Z,41.73
2019-02-06T18:41:15.922Z,41.13
2019-02-06T18:43:45.830Z,38.07
2019-02-06T18:46:16.337Z,35.23
2019-02-06T18:48:46.249Z,34.27
2019-02-06T18:51:16.165Z,35.50
2019-02-06T18:53:46.176Z,31.30
2019-02-06T18:56:16.667Z,33.10
2019-02-06T18:58:46.590Z,30.73
2019-02-06T19:01:16.525Z,31.73
2019-02-06T19:03:47.643Z,31.13
2019-02-06T19:06:19.004Z,36.33
2019-02-06T19:08:49.783Z,33.73
2019-02-06T19:11:19.947Z,38.03
2019-02-06T19:13:50.000Z,35.07
2019-02-06T19:16:20.211Z,32.50
2019-02-06T19:18:50.124Z,32.30
2019-02-06T19:21:21.017Z,33.17
2019-02-06T19:23:51.038Z,32.43
2019-02-06T19:26:21.139Z,30.23
2019-02-06T19:28:51.056Z,26.30
2019-02-06T19:31:21.165Z,32.43
2019-02-06T19:33:51.371Z,29.73
2019-02-06T19:36:21.976Z,31.07
2019-02-06T19:38:51.887Z,55.17
2019-02-06T19:41:21.802Z,54.87
2019-02-06T19:43:51.712Z,52.40
2019-02-06T19:46:21.628Z,53.77
2019-02-06T19:48:51.548Z,54.67
2019-02-06T19:51:21.454Z,93.10
2019-02-06T19:53:51.867Z,103.10
2019-02-06T19:56:22.169Z,94.63
2019-02-06T19:58:52.379Z,134.67
2019-02-06T20:01:22.286Z,96.57
2019-02-06T20:03:52.734Z,120.47
2019-02-06T20:06:31.453Z,96.17
2019-02-06T20:09:02.008Z,87.63
2019-02-06T20:11:32.074Z,74.43
2019-02-06T20:14:02.679Z,66.20
2019-02-06T20:16:33.373Z,57.93
2019-02-06T20:19:03.890Z,58.90
2019-02-06T20:21:34.282Z,62.03
2019-02-06T20:24:05.496Z,56.60
2019-02-06T20:26:35.673Z,63.83
2019-02-06T20:29:06.243Z,65.13
2019-02-06T20:31:37.208Z,66.90
2019-02-06T20:34:08.060Z,84.50
2019-02-06T20:36:39.131Z,90.33
2019-02-06T20:39:10.176Z,90.43
2019-02-06T20:41:40.739Z,98.27
2019-02-06T20:44:12.753Z,97.50
2019-02-06T20:46:43.750Z,99.90
2019-02-06T20:49:14.419Z,80.40
2019-02-06T20:51:45.647Z,79.07
2019-02-06T20:54:16.328Z,69.17
2019-02-06T20:56:46.674Z,69.03
2019-02-06T20:59:17.736Z,58.63
2019-02-06T21:01:48.237Z,56.63
2019-02-06T21:04:21.006Z,53.60
2019-02-06T21:06:52.141Z,56.30
2019-02-06T21:09:22.675Z,60.10
2019-02-06T21:11:53.943Z,68.90
2019-02-06T21:14:25.561Z,67.63
2019-02-06T21:16:55.927Z,86.03
2019-02-06T21:19:28.231Z,88.40
2019-02-06T21:21:58.652Z,115.57
2019-02-06T21:24:29.252Z,111.47
2019-02-06T21:26:59.947Z,117.93
2019-02-06T21:29:30.326Z,129.80
2019-02-06T21:32:00.759Z,120.83
2019-02-06T21:34:31.655Z,145.33
2019-02-06T21:37:01.562Z,137.87
2019-02-06T21:39:31.474Z,119.87
2019-02-06T21:42:01.284Z,119.77
2019-02-06T21:44:31.596Z,110.00
2019-02-06T21:47:01.807Z,109.20
2019-02-06T21:49:32.015Z,84.03
2019-02-06T21:52:02.025Z,70.30
2019-02-06T21:54:32.136Z,57.63
2019-02-06T21:57:02.187Z,59.70
2019-02-06T21:59:32.158Z,56.60
2019-02-06T22:02:02.071Z,55.43
2019-02-06T22:04:31.984Z,54.77
2019-02-06T22:07:02.299Z,52.73
2019-02-06T22:09:32.498Z,58.23
2019-02-06T22:12:02.413Z,55.97
2019-02-06T22:14:32.825Z,53.47
2019-02-06T22:17:03.221Z,57.00
2019-02-06T22:19:33.137Z,50.57
2019-02-06T22:22:03.048Z,57.33
2019-02-06T22:24:32.963Z,86.40
2019-02-06T22:27:02.876Z,65.90
2019-02-06T22:29:32.789Z,60.50
2019-02-06T22:32:02.705Z,56.33
2019-02-06T22:34:32.615Z,57.97
2019-02-06T22:37:02.828Z,55.57
2019-02-06T22:39:32.739Z,54.23
2019-02-06T22:42:02.657Z,43.03
2019-02-06T22:44:32.566Z,47.73
2019-02-06T22:47:02.484Z,50.37
2019-02-06T22:49:33.050Z,52.27
2019-02-06T22:52:02.999Z,54.07
2019-02-06T22:54:32.904Z,58.43
2019-02-06T22:57:02.920Z,60.57
2019-02-06T22:59:33.617Z,51.57
2019-02-06T23:02:04.287Z,48.93
2019-02-06T23:04:34.229Z,47.97
2019-02-06T23:07:07.060Z,48.87
2019-02-06T23:09:36.028Z,56.00
2019-02-06T23:12:06.815Z,41.07
2019-02-06T23:14:36.737Z,40.77
2019-02-06T23:17:06.847Z,43.70
2019-02-06T23:19:37.251Z,66.57
2019-02-06T23:22:07.695Z,66.07
2019-02-06T23:24:37.963Z,70.73
2019-02-06T23:27:08.176Z,67.63
2019-02-06T23:29:38.669Z,52.60
2019-02-06T23:32:08.685Z,43.43
2019-02-06T23:34:38.599Z,37.97
2019-02-06T23:37:11.436Z,36.90
2019-02-06T23:39:41.176Z,41.67
2019-02-06T23:42:11.388Z,41.37
2019-02-06T23:44:41.594Z,56.23
2019-02-06T23:47:11.803Z,98.87
2019-02-06T23:49:41.717Z,104.03
2019-02-06T23:52:11.685Z,105.00
2019-02-06T23:54:41.742Z,92.00
2019-02-06T23:57:11.653Z,49.40
2019-02-06T23:59:41.570Z,55.97
